sensor_id;sensor_type;location;lat;lon;timestamp;P1;durP1;ratioP1;P2;durP2;ratioP2
5022;SDS011;2530;47.990;7.866;2023-07-31T00:02:12;2.75;;;2.50;;
5022;SDS011;2530;47.990;7.866;2023-07-31T00:04:38;4.27;;;2.50;;
5022;SDS011;2530;47.990;7.866;2023-07-31T00:07:04;4.40;;;2.50;;
5022;SDS011;2530;47.990;7.866;2023-07-31T00:09:32;3.13;;;2.22;;
5022;SDS011;2530;47.990;7.866;2023-07-31T00:11:57;6.00;;;2.30;;
5022;SDS011;2530;47.990;7.866;2023-07-31T00:14:23;3.03;;;2.10;;
5022;SDS011;2530;47.990;7.866;2023-07-31T00:16:49;3.07;;;2.20;;
5022;SDS011;2530;47.990;7.866;2023-07-31T00:19:15;3.20;;;2.50;;
5022;SDS011;2530;47.990;7.866;2023-07-31T00:21:40;3.20;;;2.90;;
5022;SDS011;2530;47.990;7.866;2023-07-31T00:24:06;3.83;;;2.40;;
5022;SDS011;2530;47.990;7.866;2023-07-31T00:26:31;3.50;;;2.67;;
5022;SDS011;2530;47.990;7.866;2023-07-31T00:28:57;4.85;;;2.30;;
5022;SDS011;2530;47.990;7.866;2023-07-31T00:31:22;3.90;;;2.23;;
5022;SDS011;2530;47.990;7.866;2023-07-31T00:33:48;2.80;;;2.23;;
5022;SDS011;2530;47.990;7.866;2023-07-31T00:36:14;2.95;;;2.40;;
5022;SDS011;2530;47.990;7.866;2023-07-31T00:38:39;2.72;;;2.10;;
5022;SDS011;2530;47.990;7.866;2023-07-31T00:41:05;5.43;;;2.10;;
5022;SDS011;2530;47.990;7.866;2023-07-31T00:43:30;5.00;;;2.50;;
5022;SDS011;2530;47.990;7.866;2023-07-31T00:45:56;3.75;;;2.63;;
5022;SDS011;2530;47.990;7.866;2023-07-31T00:48:21;4.10;;;2.60;;
5022;SDS011;2530;47.990;7.866;2023-07-31T00:50:47;2.63;;;2.42;;
5022;SDS011;2530;47.990;7.866;2023-07-31T00:53:13;3.10;;;2.27;;
5022;SDS011;2530;47.990;7.866;2023-07-31T00:55:39;4.23;;;2.80;;
5022;SDS011;2530;47.990;7.866;2023-07-31T00:58:05;4.10;;;2.10;;
5022;SDS011;2530;47.990;7.866;2023-07-31T01:00:30;4.70;;;2.70;;
5022;SDS011;2530;47.990;7.866;2023-07-31T01:02:56;2.90;;;2.20;;
5022;SDS011;2530;47.990;7.866;2023-07-31T01:05:43;3.70;;;2.10;;
5022;SDS011;2530;47.990;7.866;2023-07-31T01:11:16;3.50;;;2.20;;
5022;SDS011;2530;47.990;7.866;2023-07-31T01:13:50;3.53;;;2.67;;
5022;SDS011;2530;47.990;7.866;2023-07-31T01:16:16;4.65;;;2.58;;
5022;SDS011;2530;47.990;7.866;2023-07-31T01:18:41;2.40;;;2.20;;
5022;SDS011;2530;47.990;7.866;2023-07-31T01:26:47;3.60;;;2.40;;
5022;SDS011;2530;47.990;7.866;2023-07-31T01:32:14;2.85;;;2.03;;
5022;SDS011;2530;47.990;7.866;2023-07-31T01:34:41;5.88;;;2.70;;
5022;SDS011;2530;47.990;7.866;2023-07-31T01:37:07;3.10;;;2.30;;
5022;SDS011;2530;47.990;7.866;2023-07-31T01:39:33;3.80;;;2.53;;
5022;SDS011;2530;47.990;7.866;2023-07-31T01:41:59;4.30;;;2.50;;
5022;SDS011;2530;47.990;7.866;2023-07-31T01:44:24;3.17;;;2.73;;
5022;SDS011;2530;47.990;7.866;2023-07-31T01:46:50;8.37;;;2.70;;
5022;SDS011;2530;47.990;7.866;2023-07-31T01:49:15;3.78;;;2.30;;
5022;SDS011;2530;47.990;7.866;2023-07-31T01:51:41;2.50;;;2.30;;
5022;SDS011;2530;47.990;7.866;2023-07-31T01:54:06;5.10;;;2.57;;
5022;SDS011;2530;47.990;7.866;2023-07-31T01:56:32;3.72;;;2.50;;
5022;SDS011;2530;47.990;7.866;2023-07-31T01:58:57;3.30;;;2.30;;
5022;SDS011;2530;47.990;7.866;2023-07-31T02:01:23;5.75;;;2.60;;
5022;SDS011;2530;47.990;7.866;2023-07-31T02:03:48;4.93;;;2.80;;
5022;SDS011;2530;47.990;7.866;2023-07-31T02:06:14;4.03;;;2.40;;
5022;SDS011;2530;47.990;7.866;2023-07-31T02:08:39;5.03;;;2.60;;
5022;SDS011;2530;47.990;7.866;2023-07-31T02:11:05;3.95;;;2.22;;
5022;SDS011;2530;47.990;7.866;2023-07-31T02:13:31;4.53;;;2.63;;
5022;SDS011;2530;47.990;7.866;2023-07-31T02:15:56;4.93;;;2.90;;
5022;SDS011;2530;47.990;7.866;2023-07-31T02:18:22;3.03;;;2.53;;
5022;SDS011;2530;47.990;7.866;2023-07-31T02:20:51;2.97;;;2.50;;
5022;SDS011;2530;47.990;7.866;2023-07-31T02:23:20;3.10;;;2.77;;
5022;SDS011;2530;47.990;7.866;2023-07-31T02:25:46;3.20;;;2.70;;
5022;SDS011;2530;47.990;7.866;2023-07-31T02:28:11;2.73;;;2.40;;
5022;SDS011;2530;47.990;7.866;2023-07-31T02:30:37;2.95;;;2.58;;
5022;SDS011;2530;47.990;7.866;2023-07-31T02:33:03;5.17;;;2.83;;
5022;SDS011;2530;47.990;7.866;2023-07-31T02:35:29;5.30;;;2.65;;
5022;SDS011;2530;47.990;7.866;2023-07-31T02:37:55;3.97;;;2.80;;
5022;SDS011;2530;47.990;7.866;2023-07-31T02:40:20;2.70;;;2.40;;
5022;SDS011;2530;47.990;7.866;2023-07-31T02:42:46;5.18;;;2.80;;
5022;SDS011;2530;47.990;7.866;2023-07-31T02:45:12;4.32;;;2.67;;
5022;SDS011;2530;47.990;7.866;2023-07-31T02:47:37;2.97;;;2.30;;
5022;SDS011;2530;47.990;7.866;2023-07-31T02:50:03;2.70;;;2.30;;
5022;SDS011;2530;47.990;7.866;2023-07-31T02:52:29;3.20;;;2.30;;
5022;SDS011;2530;47.990;7.866;2023-07-31T02:54:55;4.20;;;2.45;;
5022;SDS011;2530;47.990;7.866;2023-07-31T02:57:20;3.37;;;2.80;;
5022;SDS011;2530;47.990;7.866;2023-07-31T02:59:46;4.93;;;2.17;;
5022;SDS011;2530;47.990;7.866;2023-07-31T03:02:11;3.20;;;2.50;;
5022;SDS011;2530;47.990;7.866;2023-07-31T03:04:38;5.72;;;3.35;;
5022;SDS011;2530;47.990;7.866;2023-07-31T03:07:03;2.70;;;2.50;;
5022;SDS011;2530;47.990;7.866;2023-07-31T03:09:29;2.95;;;2.30;;
5022;SDS011;2530;47.990;7.866;2023-07-31T03:11:55;3.60;;;3.00;;
5022;SDS011;2530;47.990;7.866;2023-07-31T03:14:20;5.70;;;2.50;;
5022;SDS011;2530;47.990;7.866;2023-07-31T03:16:46;4.55;;;2.45;;
5022;SDS011;2530;47.990;7.866;2023-07-31T03:19:11;3.70;;;2.60;;
5022;SDS011;2530;47.990;7.866;2023-07-31T03:21:37;2.57;;;2.37;;
5022;SDS011;2530;47.990;7.866;2023-07-31T03:24:02;2.60;;;2.40;;
5022;SDS011;2530;47.990;7.866;2023-07-31T03:26:30;3.90;;;2.63;;
5022;SDS011;2530;47.990;7.866;2023-07-31T03:28:56;3.45;;;2.50;;
5022;SDS011;2530;47.990;7.866;2023-07-31T03:31:22;4.75;;;3.10;;
5022;SDS011;2530;47.990;7.866;2023-07-31T03:33:47;3.90;;;2.70;;
5022;SDS011;2530;47.990;7.866;2023-07-31T03:36:13;3.20;;;2.53;;
5022;SDS011;2530;47.990;7.866;2023-07-31T03:38:38;3.63;;;2.30;;
5022;SDS011;2530;47.990;7.866;2023-07-31T03:41:04;2.93;;;2.40;;
5022;SDS011;2530;47.990;7.866;2023-07-31T03:43:31;3.50;;;2.20;;
5022;SDS011;2530;47.990;7.866;2023-07-31T03:45:58;2.45;;;2.10;;
5022;SDS011;2530;47.990;7.866;2023-07-31T03:48:24;5.35;;;2.50;;
5022;SDS011;2530;47.990;7.866;2023-07-31T03:50:50;4.03;;;2.55;;
5022;SDS011;2530;47.990;7.866;2023-07-31T03:53:16;3.77;;;2.63;;
5022;SDS011;2530;47.990;7.866;2023-07-31T03:55:41;3.30;;;2.60;;
5022;SDS011;2530;47.990;7.866;2023-07-31T03:58:07;6.38;;;2.70;;
5022;SDS011;2530;47.990;7.866;2023-07-31T04:00:32;3.30;;;2.60;;
5022;SDS011;2530;47.990;7.866;2023-07-31T04:02:58;4.40;;;2.70;;
5022;SDS011;2530;47.990;7.866;2023-07-31T04:05:23;3.33;;;2.50;;
5022;SDS011;2530;47.990;7.866;2023-07-31T04:07:49;3.00;;;2.50;;
5022;SDS011;2530;47.990;7.866;2023-07-31T04:10:14;4.90;;;2.50;;
5022;SDS011;2530;47.990;7.866;2023-07-31T04:12:40;2.88;;;2.58;;
5022;SDS011;2530;47.990;7.866;2023-07-31T04:15:06;2.33;;;2.10;;
5022;SDS011;2530;47.990;7.866;2023-07-31T04:17:32;3.47;;;2.10;;
5022;SDS011;2530;47.990;7.866;2023-07-31T04:19:57;4.90;;;2.28;;
5022;SDS011;2530;47.990;7.866;2023-07-31T04:22:23;2.53;;;2.17;;
5022;SDS011;2530;47.990;7.866;2023-07-31T04:24:48;2.23;;;2.03;;
5022;SDS011;2530;47.990;7.866;2023-07-31T04:27:14;3.67;;;2.65;;
5022;SDS011;2530;47.990;7.866;2023-07-31T04:29:39;2.97;;;2.67;;
5022;SDS011;2530;47.990;7.866;2023-07-31T04:32:07;2.38;;;1.90;;
5022;SDS011;2530;47.990;7.866;2023-07-31T04:34:33;4.00;;;2.60;;
5022;SDS011;2530;47.990;7.866;2023-07-31T04:36:58;4.78;;;2.40;;
5022;SDS011;2530;47.990;7.866;2023-07-31T04:39:24;3.40;;;2.03;;
5022;SDS011;2530;47.990;7.866;2023-07-31T04:41:50;3.75;;;2.40;;
5022;SDS011;2530;47.990;7.866;2023-07-31T04:44:15;2.87;;;2.50;;
5022;SDS011;2530;47.990;7.866;2023-07-31T04:46:41;3.60;;;2.73;;
5022;SDS011;2530;47.990;7.866;2023-07-31T04:49:06;5.80;;;2.60;;
5022;SDS011;2530;47.990;7.866;2023-07-31T04:51:32;3.20;;;2.40;;
5022;SDS011;2530;47.990;7.866;2023-07-31T04:53:57;5.30;;;2.60;;
5022;SDS011;2530;47.990;7.866;2023-07-31T04:56:23;2.30;;;2.10;;
5022;SDS011;2530;47.990;7.866;2023-07-31T04:58:48;3.30;;;2.30;;
5022;SDS011;2530;47.990;7.866;2023-07-31T05:01:14;3.30;;;2.17;;
5022;SDS011;2530;47.990;7.866;2023-07-31T05:03:39;4.50;;;2.73;;
5022;SDS011;2530;47.990;7.866;2023-07-31T05:06:05;3.27;;;2.50;;
5022;SDS011;2530;47.990;7.866;2023-07-31T05:08:30;3.20;;;2.40;;
5022;SDS011;2530;47.990;7.866;2023-07-31T05:10:56;3.80;;;2.20;;
5022;SDS011;2530;47.990;7.866;2023-07-31T05:13:21;3.63;;;2.23;;
5022;SDS011;2530;47.990;7.866;2023-07-31T05:15:47;4.15;;;2.20;;
5022;SDS011;2530;47.990;7.866;2023-07-31T05:18:14;3.85;;;2.20;;
5022;SDS011;2530;47.990;7.866;2023-07-31T05:20:40;3.90;;;2.40;;
5022;SDS011;2530;47.990;7.866;2023-07-31T05:23:05;5.40;;;2.63;;
5022;SDS011;2530;47.990;7.866;2023-07-31T05:25:31;4.10;;;2.50;;
5022;SDS011;2530;47.990;7.866;2023-07-31T05:27:57;3.50;;;2.40;;
5022;SDS011;2530;47.990;7.866;2023-07-31T05:30:23;3.30;;;2.53;;
5022;SDS011;2530;47.990;7.866;2023-07-31T05:32:48;3.30;;;2.00;;
5022;SDS011;2530;47.990;7.866;2023-07-31T05:35:14;3.87;;;2.47;;
5022;SDS011;2530;47.990;7.866;2023-07-31T05:37:39;3.03;;;2.30;;
5022;SDS011;2530;47.990;7.866;2023-07-31T05:40:05;3.30;;;2.30;;
5022;SDS011;2530;47.990;7.866;2023-07-31T05:42:31;3.42;;;2.53;;
5022;SDS011;2530;47.990;7.866;2023-07-31T05:44:56;3.80;;;2.30;;
5022;SDS011;2530;47.990;7.866;2023-07-31T05:47:22;3.30;;;2.40;;
5022;SDS011;2530;47.990;7.866;2023-07-31T05:49:48;2.53;;;1.95;;
5022;SDS011;2530;47.990;7.866;2023-07-31T05:52:14;4.80;;;2.00;;
5022;SDS011;2530;47.990;7.866;2023-07-31T05:54:41;3.10;;;2.00;;
5022;SDS011;2530;47.990;7.866;2023-07-31T05:57:07;2.30;;;1.60;;
5022;SDS011;2530;47.990;7.866;2023-07-31T05:59:32;2.63;;;1.60;;
5022;SDS011;2530;47.990;7.866;2023-07-31T06:01:58;2.90;;;1.73;;
5022;SDS011;2530;47.990;7.866;2023-07-31T06:04:24;3.80;;;1.90;;
5022;SDS011;2530;47.990;7.866;2023-07-31T06:06:50;3.95;;;1.63;;
5022;SDS011;2530;47.990;7.866;2023-07-31T06:09:16;4.30;;;1.92;;
5022;SDS011;2530;47.990;7.866;2023-07-31T06:11:41;4.40;;;1.80;;
5022;SDS011;2530;47.990;7.866;2023-07-31T06:14:07;3.00;;;1.90;;
5022;SDS011;2530;47.990;7.866;2023-07-31T06:16:32;2.40;;;1.70;;
5022;SDS011;2530;47.990;7.866;2023-07-31T06:18:58;5.10;;;2.57;;
5022;SDS011;2530;47.990;7.866;2023-07-31T06:21:23;2.35;;;1.63;;
5022;SDS011;2530;47.990;7.866;2023-07-31T06:23:49;3.03;;;1.90;;
5022;SDS011;2530;47.990;7.866;2023-07-31T06:26:14;2.90;;;1.80;;
5022;SDS011;2530;47.990;7.866;2023-07-31T06:28:40;6.00;;;1.70;;
5022;SDS011;2530;47.990;7.866;2023-07-31T06:31:05;3.60;;;2.00;;
5022;SDS011;2530;47.990;7.866;2023-07-31T06:33:31;3.67;;;1.50;;
5022;SDS011;2530;47.990;7.866;2023-07-31T06:35:56;3.90;;;1.70;;
5022;SDS011;2530;47.990;7.866;2023-07-31T06:38:23;2.05;;;1.50;;
5022;SDS011;2530;47.990;7.866;2023-07-31T06:40:50;4.57;;;2.20;;
5022;SDS011;2530;47.990;7.866;2023-07-31T06:43:16;4.72;;;2.10;;
5022;SDS011;2530;47.990;7.866;2023-07-31T06:45:41;4.60;;;2.23;;
5022;SDS011;2530;47.990;7.866;2023-07-31T06:48:07;3.57;;;2.30;;
5022;SDS011;2530;47.990;7.866;2023-07-31T06:50:32;4.13;;;2.10;;
5022;SDS011;2530;47.990;7.866;2023-07-31T06:52:58;4.10;;;2.30;;
5022;SDS011;2530;47.990;7.866;2023-07-31T06:55:24;4.90;;;2.40;;
5022;SDS011;2530;47.990;7.866;2023-07-31T06:57:51;3.55;;;2.70;;
5022;SDS011;2530;47.990;7.866;2023-07-31T07:00:18;4.85;;;2.70;;
5022;SDS011;2530;47.990;7.866;2023-07-31T07:02:44;4.90;;;3.00;;
5022;SDS011;2530;47.990;7.866;2023-07-31T07:05:12;4.15;;;2.50;;
5022;SDS011;2530;47.990;7.866;2023-07-31T07:07:38;3.10;;;2.20;;
5022;SDS011;2530;47.990;7.866;2023-07-31T07:10:04;5.60;;;2.67;;
5022;SDS011;2530;47.990;7.866;2023-07-31T07:12:30;3.67;;;1.95;;
5022;SDS011;2530;47.990;7.866;2023-07-31T07:14:57;3.28;;;1.90;;
5022;SDS011;2530;47.990;7.866;2023-07-31T07:17:23;4.57;;;1.90;;
5022;SDS011;2530;47.990;7.866;2023-07-31T07:19:49;3.50;;;2.00;;
5022;SDS011;2530;47.990;7.866;2023-07-31T07:22:15;3.75;;;1.95;;
5022;SDS011;2530;47.990;7.866;2023-07-31T07:24:40;3.78;;;2.08;;
5022;SDS011;2530;47.990;7.866;2023-07-31T07:27:06;3.80;;;1.87;;
5022;SDS011;2530;47.990;7.866;2023-07-31T07:29:33;2.70;;;1.80;;
5022;SDS011;2530;47.990;7.866;2023-07-31T07:31:59;2.60;;;2.00;;
5022;SDS011;2530;47.990;7.866;2023-07-31T07:34:25;2.93;;;1.83;;
5022;SDS011;2530;47.990;7.866;2023-07-31T07:36:52;6.93;;;1.83;;
5022;SDS011;2530;47.990;7.866;2023-07-31T07:39:18;3.25;;;1.80;;
5022;SDS011;2530;47.990;7.866;2023-07-31T07:41:44;3.50;;;2.10;;
5022;SDS011;2530;47.990;7.866;2023-07-31T07:44:09;3.90;;;1.73;;
5022;SDS011;2530;47.990;7.866;2023-07-31T07:46:35;4.78;;;1.70;;
5022;SDS011;2530;47.990;7.866;2023-07-31T07:49:00;3.73;;;1.60;;
5022;SDS011;2530;47.990;7.866;2023-07-31T07:51:26;3.43;;;1.90;;
5022;SDS011;2530;47.990;7.866;2023-07-31T07:53:51;2.22;;;1.80;;
5022;SDS011;2530;47.990;7.866;2023-07-31T07:56:17;2.90;;;1.63;;
5022;SDS011;2530;47.990;7.866;2023-07-31T07:58:43;3.15;;;1.70;;
5022;SDS011;2530;47.990;7.866;2023-07-31T08:01:08;2.80;;;1.40;;
5022;SDS011;2530;47.990;7.866;2023-07-31T08:03:34;2.00;;;1.60;;
5022;SDS011;2530;47.990;7.866;2023-07-31T08:06:00;2.28;;;1.50;;
5022;SDS011;2530;47.990;7.866;2023-07-31T08:08:26;2.45;;;1.67;;
5022;SDS011;2530;47.990;7.866;2023-07-31T08:10:51;2.20;;;1.30;;
5022;SDS011;2530;47.990;7.866;2023-07-31T08:13:17;2.72;;;1.50;;
5022;SDS011;2530;47.990;7.866;2023-07-31T08:15:42;2.13;;;1.70;;
5022;SDS011;2530;47.990;7.866;2023-07-31T08:18:08;2.83;;;1.88;;
5022;SDS011;2530;47.990;7.866;2023-07-31T08:20:35;3.58;;;1.65;;
5022;SDS011;2530;47.990;7.866;2023-07-31T08:23:00;5.20;;;1.65;;
5022;SDS011;2530;47.990;7.866;2023-07-31T08:25:26;3.93;;;1.83;;
5022;SDS011;2530;47.990;7.866;2023-07-31T08:27:51;2.50;;;1.60;;
5022;SDS011;2530;47.990;7.866;2023-07-31T08:30:18;3.87;;;1.60;;
5022;SDS011;2530;47.990;7.866;2023-07-31T08:32:44;1.65;;;1.30;;
5022;SDS011;2530;47.990;7.866;2023-07-31T08:35:09;3.37;;;1.67;;
5022;SDS011;2530;47.990;7.866;2023-07-31T08:37:35;3.50;;;1.60;;
5022;SDS011;2530;47.990;7.866;2023-07-31T08:40:01;5.10;;;1.80;;
5022;SDS011;2530;47.990;7.866;2023-07-31T08:42:27;2.28;;;1.17;;
5022;SDS011;2530;47.990;7.866;2023-07-31T08:44:53;3.13;;;1.90;;
5022;SDS011;2530;47.990;7.866;2023-07-31T08:47:20;2.20;;;1.55;;
5022;SDS011;2530;47.990;7.866;2023-07-31T08:49:46;2.00;;;1.15;;
5022;SDS011;2530;47.990;7.866;2023-07-31T08:52:12;3.50;;;1.45;;
5022;SDS011;2530;47.990;7.866;2023-07-31T08:54:38;4.97;;;1.80;;
5022;SDS011;2530;47.990;7.866;2023-07-31T08:57:04;2.97;;;1.65;;
5022;SDS011;2530;47.990;7.866;2023-07-31T08:59:31;3.63;;;2.22;;
5022;SDS011;2530;47.990;7.866;2023-07-31T09:02:00;3.13;;;1.60;;
5022;SDS011;2530;47.990;7.866;2023-07-31T09:04:31;2.47;;;1.58;;
5022;SDS011;2530;47.990;7.866;2023-07-31T09:06:59;2.70;;;1.73;;
5022;SDS011;2530;47.990;7.866;2023-07-31T09:09:26;2.28;;;1.30;;
5022;SDS011;2530;47.990;7.866;2023-07-31T09:11:52;3.53;;;1.98;;
5022;SDS011;2530;47.990;7.866;2023-07-31T09:14:18;3.80;;;2.13;;
5022;SDS011;2530;47.990;7.866;2023-07-31T09:16:57;4.60;;;2.00;;
5022;SDS011;2530;47.990;7.866;2023-07-31T09:19:29;2.50;;;1.70;;
5022;SDS011;2530;47.990;7.866;2023-07-31T09:21:58;3.08;;;1.80;;
5022;SDS011;2530;47.990;7.866;2023-07-31T09:24:25;3.40;;;2.20;;
5022;SDS011;2530;47.990;7.866;2023-07-31T09:26:55;3.45;;;1.77;;
5022;SDS011;2530;47.990;7.866;2023-07-31T09:29:22;1.80;;;1.50;;
5022;SDS011;2530;47.990;7.866;2023-07-31T09:31:48;4.03;;;1.90;;
5022;SDS011;2530;47.990;7.866;2023-07-31T09:34:13;3.47;;;2.13;;
5022;SDS011;2530;47.990;7.866;2023-07-31T09:36:43;4.00;;;2.20;;
5022;SDS011;2530;47.990;7.866;2023-07-31T09:39:10;4.63;;;2.20;;
5022;SDS011;2530;47.990;7.866;2023-07-31T09:41:38;3.90;;;1.60;;
5022;SDS011;2530;47.990;7.866;2023-07-31T09:44:11;2.00;;;1.58;;
5022;SDS011;2530;47.990;7.866;2023-07-31T09:46:37;3.65;;;2.20;;
5022;SDS011;2530;47.990;7.866;2023-07-31T09:49:09;4.40;;;1.90;;
5022;SDS011;2530;47.990;7.866;2023-07-31T09:51:40;4.20;;;1.70;;
5022;SDS011;2530;47.990;7.866;2023-07-31T09:54:13;2.38;;;1.50;;
5022;SDS011;2530;47.990;7.866;2023-07-31T09:56:44;5.00;;;2.00;;
5022;SDS011;2530;47.990;7.866;2023-07-31T09:59:12;3.45;;;1.70;;
5022;SDS011;2530;47.990;7.866;2023-07-31T10:01:42;2.90;;;1.58;;
5022;SDS011;2530;47.990;7.866;2023-07-31T10:04:09;4.80;;;1.85;;
5022;SDS011;2530;47.990;7.866;2023-07-31T10:06:35;4.80;;;2.00;;
5022;SDS011;2530;47.990;7.866;2023-07-31T10:09:03;2.60;;;2.10;;
5022;SDS011;2530;47.990;7.866;2023-07-31T10:11:30;2.95;;;1.73;;
5022;SDS011;2530;47.990;7.866;2023-07-31T10:14:03;2.88;;;1.92;;
5022;SDS011;2530;47.990;7.866;2023-07-31T10:16:30;3.80;;;2.28;;
5022;SDS011;2530;47.990;7.866;2023-07-31T10:18:56;2.35;;;1.60;;
5022;SDS011;2530;47.990;7.866;2023-07-31T10:21:23;3.35;;;1.80;;
5022;SDS011;2530;47.990;7.866;2023-07-31T10:23:49;2.30;;;1.40;;
5022;SDS011;2530;47.990;7.866;2023-07-31T10:26:17;3.50;;;1.60;;
5022;SDS011;2530;47.990;7.866;2023-07-31T10:28:45;2.72;;;1.90;;
5022;SDS011;2530;47.990;7.866;2023-07-31T10:31:11;4.18;;;1.95;;
5022;SDS011;2530;47.990;7.866;2023-07-31T10:33:38;5.43;;;2.13;;
5022;SDS011;2530;47.990;7.866;2023-07-31T10:36:17;3.90;;;2.00;;
5022;SDS011;2530;47.990;7.866;2023-07-31T10:38:44;2.20;;;1.83;;
5022;SDS011;2530;47.990;7.866;2023-07-31T10:41:10;4.40;;;1.80;;
5022;SDS011;2530;47.990;7.866;2023-07-31T10:43:37;3.20;;;1.63;;
5022;SDS011;2530;47.990;7.866;2023-07-31T10:46:09;4.65;;;2.22;;
5022;SDS011;2530;47.990;7.866;2023-07-31T10:48:38;2.97;;;1.80;;
5022;SDS011;2530;47.990;7.866;2023-07-31T10:51:07;3.65;;;2.03;;
5022;SDS011;2530;47.990;7.866;2023-07-31T10:53:35;4.30;;;2.50;;
5022;SDS011;2530;47.990;7.866;2023-07-31T10:56:01;4.03;;;2.03;;
5022;SDS011;2530;47.990;7.866;2023-07-31T10:58:29;3.10;;;1.70;;
5022;SDS011;2530;47.990;7.866;2023-07-31T11:00:58;2.55;;;2.00;;
5022;SDS011;2530;47.990;7.866;2023-07-31T11:03:46;3.72;;;1.70;;
5022;SDS011;2530;47.990;7.866;2023-07-31T11:06:14;3.67;;;1.60;;
5022;SDS011;2530;47.990;7.866;2023-07-31T11:08:41;5.50;;;1.85;;
5022;SDS011;2530;47.990;7.866;2023-07-31T11:11:09;3.53;;;1.85;;
5022;SDS011;2530;47.990;7.866;2023-07-31T11:13:40;3.85;;;1.80;;
5022;SDS011;2530;47.990;7.866;2023-07-31T11:16:11;3.28;;;1.65;;
5022;SDS011;2530;47.990;7.866;2023-07-31T11:18:41;4.32;;;2.10;;
5022;SDS011;2530;47.990;7.866;2023-07-31T11:21:17;2.20;;;1.85;;
5022;SDS011;2530;47.990;7.866;2023-07-31T11:23:48;4.50;;;2.35;;
5022;SDS011;2530;47.990;7.866;2023-07-31T11:26:16;4.95;;;1.88;;
5022;SDS011;2530;47.990;7.866;2023-07-31T11:28:42;5.55;;;2.40;;
5022;SDS011;2530;47.990;7.866;2023-07-31T11:31:11;3.23;;;1.80;;
5022;SDS011;2530;47.990;7.866;2023-07-31T11:33:36;3.50;;;1.90;;
5022;SDS011;2530;47.990;7.866;2023-07-31T11:36:02;4.20;;;2.13;;
5022;SDS011;2530;47.990;7.866;2023-07-31T11:38:28;5.10;;;2.00;;
5022;SDS011;2530;47.990;7.866;2023-07-31T11:40:55;2.50;;;1.80;;
5022;SDS011;2530;47.990;7.866;2023-07-31T11:43:24;3.15;;;1.83;;
5022;SDS011;2530;47.990;7.866;2023-07-31T11:45:52;4.50;;;1.70;;
5022;SDS011;2530;47.990;7.866;2023-07-31T11:48:23;3.28;;;2.10;;
5022;SDS011;2530;47.990;7.866;2023-07-31T11:50:51;6.03;;;2.30;;
5022;SDS011;2530;47.990;7.866;2023-07-31T11:53:19;4.55;;;2.00;;
5022;SDS011;2530;47.990;7.866;2023-07-31T11:55:53;3.42;;;1.90;;
5022;SDS011;2530;47.990;7.866;2023-07-31T11:58:20;4.22;;;2.20;;
5022;SDS011;2530;47.990;7.866;2023-07-31T12:00:46;2.20;;;2.00;;
5022;SDS011;2530;47.990;7.866;2023-07-31T12:03:13;3.72;;;2.10;;
5022;SDS011;2530;47.990;7.866;2023-07-31T12:05:38;4.20;;;2.00;;
5022;SDS011;2530;47.990;7.866;2023-07-31T12:08:10;4.17;;;2.27;;
5022;SDS011;2530;47.990;7.866;2023-07-31T12:10:37;3.33;;;1.90;;
5022;SDS011;2530;47.990;7.866;2023-07-31T12:13:08;3.08;;;1.80;;
5022;SDS011;2530;47.990;7.866;2023-07-31T12:15:42;3.30;;;2.30;;
5022;SDS011;2530;47.990;7.866;2023-07-31T12:18:09;3.20;;;1.98;;
5022;SDS011;2530;47.990;7.866;2023-07-31T12:20:49;4.70;;;2.20;;
5022;SDS011;2530;47.990;7.866;2023-07-31T12:23:24;3.28;;;1.60;;
5022;SDS011;2530;47.990;7.866;2023-07-31T12:28:26;2.50;;;2.10;;
5022;SDS011;2530;47.990;7.866;2023-07-31T12:30:52;3.50;;;2.00;;
5022;SDS011;2530;47.990;7.866;2023-07-31T12:33:23;5.63;;;2.17;;
5022;SDS011;2530;47.990;7.866;2023-07-31T12:35:48;2.20;;;1.75;;
5022;SDS011;2530;47.990;7.866;2023-07-31T12:38:14;3.53;;;2.50;;
5022;SDS011;2530;47.990;7.866;2023-07-31T12:40:40;3.75;;;2.30;;
5022;SDS011;2530;47.990;7.866;2023-07-31T12:43:07;3.05;;;2.30;;
5022;SDS011;2530;47.990;7.866;2023-07-31T12:45:34;4.47;;;2.00;;
5022;SDS011;2530;47.990;7.866;2023-07-31T12:48:00;3.75;;;2.30;;
5022;SDS011;2530;47.990;7.866;2023-07-31T12:50:26;3.70;;;2.25;;
5022;SDS011;2530;47.990;7.866;2023-07-31T12:52:55;3.30;;;2.00;;
5022;SDS011;2530;47.990;7.866;2023-07-31T12:55:22;2.70;;;1.90;;
5022;SDS011;2530;47.990;7.866;2023-07-31T12:57:48;3.50;;;1.95;;
5022;SDS011;2530;47.990;7.866;2023-07-31T13:00:13;2.85;;;1.98;;
5022;SDS011;2530;47.990;7.866;2023-07-31T13:02:39;2.70;;;1.63;;
5022;SDS011;2530;47.990;7.866;2023-07-31T13:05:05;2.72;;;1.90;;
5022;SDS011;2530;47.990;7.866;2023-07-31T13:07:31;4.80;;;2.05;;
5022;SDS011;2530;47.990;7.866;2023-07-31T13:09:57;2.80;;;1.80;;
5022;SDS011;2530;47.990;7.866;2023-07-31T13:12:22;5.10;;;2.10;;
5022;SDS011;2530;47.990;7.866;2023-07-31T13:14:48;3.23;;;2.10;;
5022;SDS011;2530;47.990;7.866;2023-07-31T13:17:13;5.80;;;2.10;;
5022;SDS011;2530;47.990;7.866;2023-07-31T13:19:39;4.15;;;2.30;;
5022;SDS011;2530;47.990;7.866;2023-07-31T13:22:04;3.20;;;2.00;;
5022;SDS011;2530;47.990;7.866;2023-07-31T13:24:30;3.85;;;2.50;;
5022;SDS011;2530;47.990;7.866;2023-07-31T13:26:56;3.90;;;2.30;;
5022;SDS011;2530;47.990;7.866;2023-07-31T13:29:22;3.30;;;2.00;;
5022;SDS011;2530;47.990;7.866;2023-07-31T13:31:48;4.20;;;2.30;;
5022;SDS011;2530;47.990;7.866;2023-07-31T13:34:14;4.20;;;2.00;;
5022;SDS011;2530;47.990;7.866;2023-07-31T13:36:39;5.55;;;2.60;;
5022;SDS011;2530;47.990;7.866;2023-07-31T13:39:06;4.40;;;2.38;;
5022;SDS011;2530;47.990;7.866;2023-07-31T13:41:32;3.58;;;2.40;;
5022;SDS011;2530;47.990;7.866;2023-07-31T13:43:57;3.27;;;2.37;;
5022;SDS011;2530;47.990;7.866;2023-07-31T13:46:23;3.50;;;2.35;;
5022;SDS011;2530;47.990;7.866;2023-07-31T13:48:50;4.50;;;2.50;;
5022;SDS011;2530;47.990;7.866;2023-07-31T13:51:15;3.45;;;2.20;;
5022;SDS011;2530;47.990;7.866;2023-07-31T13:53:41;4.80;;;2.37;;
5022;SDS011;2530;47.990;7.866;2023-07-31T13:56:06;4.00;;;2.58;;
5022;SDS011;2530;47.990;7.866;2023-07-31T13:58:32;4.03;;;2.30;;
5022;SDS011;2530;47.990;7.866;2023-07-31T14:00:58;3.58;;;2.40;;
5022;SDS011;2530;47.990;7.866;2023-07-31T14:03:24;2.70;;;1.87;;
5022;SDS011;2530;47.990;7.866;2023-07-31T14:05:49;3.63;;;2.50;;
5022;SDS011;2530;47.990;7.866;2023-07-31T14:08:16;2.75;;;2.30;;
5022;SDS011;2530;47.990;7.866;2023-07-31T14:10:42;2.80;;;2.20;;
5022;SDS011;2530;47.990;7.866;2023-07-31T14:13:07;3.55;;;2.47;;
5022;SDS011;2530;47.990;7.866;2023-07-31T14:15:33;2.63;;;2.27;;
5022;SDS011;2530;47.990;7.866;2023-07-31T14:17:59;4.00;;;2.40;;
5022;SDS011;2530;47.990;7.866;2023-07-31T14:20:24;2.90;;;2.20;;
5022;SDS011;2530;47.990;7.866;2023-07-31T14:22:50;3.38;;;2.30;;
5022;SDS011;2530;47.990;7.866;2023-07-31T14:25:15;3.47;;;2.53;;
5022;SDS011;2530;47.990;7.866;2023-07-31T14:27:41;4.63;;;2.70;;
5022;SDS011;2530;47.990;7.866;2023-07-31T14:30:06;5.18;;;2.30;;
5022;SDS011;2530;47.990;7.866;2023-07-31T14:32:32;3.70;;;2.40;;
5022;SDS011;2530;47.990;7.866;2023-07-31T14:34:58;2.83;;;2.10;;
5022;SDS011;2530;47.990;7.866;2023-07-31T14:37:25;3.58;;;2.40;;
5022;SDS011;2530;47.990;7.866;2023-07-31T14:39:52;2.90;;;2.30;;
5022;SDS011;2530;47.990;7.866;2023-07-31T14:42:18;3.25;;;2.30;;
5022;SDS011;2530;47.990;7.866;2023-07-31T14:44:44;5.07;;;2.17;;
5022;SDS011;2530;47.990;7.866;2023-07-31T14:47:12;4.23;;;2.30;;
5022;SDS011;2530;47.990;7.866;2023-07-31T14:49:37;4.05;;;2.25;;
5022;SDS011;2530;47.990;7.866;2023-07-31T14:52:03;3.30;;;2.33;;
5022;SDS011;2530;47.990;7.866;2023-07-31T14:54:29;3.33;;;2.70;;
5022;SDS011;2530;47.990;7.866;2023-07-31T14:56:54;3.10;;;2.40;;
5022;SDS011;2530;47.990;7.866;2023-07-31T14:59:20;3.03;;;2.33;;
5022;SDS011;2530;47.990;7.866;2023-07-31T15:01:45;4.33;;;2.30;;
5022;SDS011;2530;47.990;7.866;2023-07-31T15:04:11;2.80;;;2.30;;
5022;SDS011;2530;47.990;7.866;2023-07-31T15:06:36;2.80;;;2.20;;
5022;SDS011;2530;47.990;7.866;2023-07-31T15:09:02;2.95;;;2.10;;
5022;SDS011;2530;47.990;7.866;2023-07-31T15:11:27;2.60;;;1.90;;
5022;SDS011;2530;47.990;7.866;2023-07-31T15:13:53;3.67;;;2.10;;
5022;SDS011;2530;47.990;7.866;2023-07-31T15:16:18;3.60;;;2.27;;
5022;SDS011;2530;47.990;7.866;2023-07-31T15:18:46;3.65;;;2.08;;
5022;SDS011;2530;47.990;7.866;2023-07-31T15:21:12;3.70;;;2.10;;
5022;SDS011;2530;47.990;7.866;2023-07-31T15:23:37;4.20;;;2.40;;
5022;SDS011;2530;47.990;7.866;2023-07-31T15:26:03;2.50;;;1.80;;